sensor_id;sensor_type;location;lat;lon;timestamp;P1;durP1;ratioP1;P2;durP2;ratioP2
69979;SDS011;57318;56.232;43.944;2022-12-18T00:01:20;29.75;;;10.32;;
69979;SDS011;57318;56.232;43.944;2022-12-18T00:03:49;26.50;;;9.70;;
69979;SDS011;57318;56.232;43.944;2022-12-18T00:06:15;18.33;;;6.53;;
69979;SDS011;57318;56.232;43.944;2022-12-18T00:08:42;21.83;;;9.13;;
69979;SDS011;57318;56.232;43.944;2022-12-18T00:11:12;21.38;;;9.35;;
69979;SDS011;57318;56.232;43.944;2022-12-18T00:13:42;21.17;;;8.50;;
69979;SDS011;57318;56.232;43.944;2022-12-18T00:16:09;31.30;;;10.95;;
69979;SDS011;57318;56.232;43.944;2022-12-18T00:18:36;27.70;;;9.43;;
69979;SDS011;57318;56.232;43.944;2022-12-18T00:21:03;25.83;;;9.27;;
69979;SDS011;57318;56.232;43.944;2022-12-18T00:23:30;25.25;;;9.52;;
69979;SDS011;57318;56.232;43.944;2022-12-18T00:26:04;20.52;;;8.15;;
69979;SDS011;57318;56.232;43.944;2022-12-18T00:28:32;21.73;;;8.27;;
69979;SDS011;57318;56.232;43.944;2022-12-18T00:31:05;34.33;;;10.50;;
69979;SDS011;57318;56.232;43.944;2022-12-18T00:33:35;27.08;;;9.70;;
69979;SDS011;57318;56.232;43.944;2022-12-18T00:36:05;20.55;;;8.07;;
69979;SDS011;57318;56.232;43.944;2022-12-18T00:38:34;23.27;;;9.30;;
69979;SDS011;57318;56.232;43.944;2022-12-18T00:41:00;21.77;;;7.88;;
69979;SDS011;57318;56.232;43.944;2022-12-18T00:43:26;19.73;;;8.32;;
69979;SDS011;57318;56.232;43.944;2022-12-18T00:45:52;19.00;;;7.20;;
69979;SDS011;57318;56.232;43.944;2022-12-18T00:48:18;25.85;;;9.55;;
69979;SDS011;57318;56.232;43.944;2022-12-18T00:50:43;21.80;;;8.13;;
69979;SDS011;57318;56.232;43.944;2022-12-18T00:53:09;23.23;;;8.27;;
69979;SDS011;57318;56.232;43.944;2022-12-18T00:55:37;18.98;;;7.22;;
69979;SDS011;57318;56.232;43.944;2022-12-18T00:58:04;22.75;;;6.80;;
69979;SDS011;57318;56.232;43.944;2022-12-18T01:00:29;25.83;;;9.40;;
69979;SDS011;57318;56.232;43.944;2022-12-18T01:02:55;26.70;;;10.43;;
69979;SDS011;57318;56.232;43.944;2022-12-18T01:05:21;20.88;;;8.90;;
69979;SDS011;57318;56.232;43.944;2022-12-18T01:07:46;11.20;;;5.30;;
69979;SDS011;57318;56.232;43.944;2022-12-18T01:10:12;25.47;;;9.53;;
69979;SDS011;57318;56.232;43.944;2022-12-18T01:12:38;20.50;;;7.55;;
69979;SDS011;57318;56.232;43.944;2022-12-18T01:15:05;19.73;;;7.93;;
69979;SDS011;57318;56.232;43.944;2022-12-18T01:17:32;18.55;;;7.28;;
69979;SDS011;57318;56.232;43.944;2022-12-18T01:19:58;24.70;;;9.70;;
69979;SDS011;57318;56.232;43.944;2022-12-18T01:22:23;24.20;;;8.97;;
69979;SDS011;57318;56.232;43.944;2022-12-18T01:24:49;23.48;;;8.77;;
69979;SDS011;57318;56.232;43.944;2022-12-18T01:27:15;19.23;;;7.07;;
69979;SDS011;57318;56.232;43.944;2022-12-18T01:29:41;24.07;;;10.10;;
69979;SDS011;57318;56.232;43.944;2022-12-18T01:32:07;20.77;;;7.73;;
69979;SDS011;57318;56.232;43.944;2022-12-18T01:34:34;20.98;;;9.13;;
69979;SDS011;57318;56.232;43.944;2022-12-18T01:37:02;16.98;;;6.43;;
69979;SDS011;57318;56.232;43.944;2022-12-18T01:39:28;31.40;;;9.85;;
69979;SDS011;57318;56.232;43.944;2022-12-18T01:41:53;17.50;;;6.80;;
69979;SDS011;57318;56.232;43.944;2022-12-18T01:50:08;19.42;;;6.63;;
69979;SDS011;57318;56.232;43.944;2022-12-18T01:52:34;21.80;;;8.20;;
69979;SDS011;57318;56.232;43.944;2022-12-18T01:57:28;17.40;;;6.93;;
69979;SDS011;57318;56.232;43.944;2022-12-18T01:59:55;24.55;;;8.88;;
69979;SDS011;57318;56.232;43.944;2022-12-18T02:02:24;19.25;;;7.75;;
69979;SDS011;57318;56.232;43.944;2022-12-18T02:04:52;21.98;;;8.85;;
69979;SDS011;57318;56.232;43.944;2022-12-18T02:07:37;17.20;;;6.47;;
69979;SDS011;57318;56.232;43.944;2022-12-18T02:13:34;23.75;;;8.93;;
69979;SDS011;57318;56.232;43.944;2022-12-18T02:16:07;22.45;;;8.27;;
69979;SDS011;57318;56.232;43.944;2022-12-18T02:18:59;19.40;;;6.88;;
69979;SDS011;57318;56.232;43.944;2022-12-18T02:24:24;21.58;;;7.57;;
69979;SDS011;57318;56.232;43.944;2022-12-18T02:27:04;12.45;;;4.47;;
69979;SDS011;57318;56.232;43.944;2022-12-18T02:29:34;15.98;;;6.65;;
69979;SDS011;57318;56.232;43.944;2022-12-18T02:32:06;20.00;;;6.75;;
69979;SDS011;57318;56.232;43.944;2022-12-18T02:34:38;19.50;;;6.68;;
69979;SDS011;57318;56.232;43.944;2022-12-18T02:37:07;16.63;;;5.88;;
69979;SDS011;57318;56.232;43.944;2022-12-18T02:39:37;13.93;;;5.75;;
69979;SDS011;57318;56.232;43.944;2022-12-18T02:42:05;11.35;;;5.47;;
69979;SDS011;57318;56.232;43.944;2022-12-18T02:44:34;13.20;;;4.70;;
69979;SDS011;57318;56.232;43.944;2022-12-18T02:47:08;16.48;;;7.40;;
69979;SDS011;57318;56.232;43.944;2022-12-18T03:01:25;10.45;;;4.30;;
69979;SDS011;57318;56.232;43.944;2022-12-18T03:06:23;11.25;;;4.70;;
69979;SDS011;57318;56.232;43.944;2022-12-18T03:09:21;9.38;;;3.90;;
69979;SDS011;57318;56.232;43.944;2022-12-18T03:11:53;11.38;;;5.25;;
69979;SDS011;57318;56.232;43.944;2022-12-18T03:14:40;11.70;;;4.50;;
69979;SDS011;57318;56.232;43.944;2022-12-18T03:17:09;11.75;;;4.80;;
69979;SDS011;57318;56.232;43.944;2022-12-18T03:19:38;10.05;;;4.68;;
69979;SDS011;57318;56.232;43.944;2022-12-18T03:22:06;12.68;;;5.38;;
69979;SDS011;57318;56.232;43.944;2022-12-18T03:24:33;9.85;;;4.57;;
69979;SDS011;57318;56.232;43.944;2022-12-18T03:27:05;16.85;;;6.80;;
69979;SDS011;57318;56.232;43.944;2022-12-18T03:29:43;11.20;;;4.70;;
69979;SDS011;57318;56.232;43.944;2022-12-18T03:32:18;10.35;;;3.85;;
69979;SDS011;57318;56.232;43.944;2022-12-18T03:34:51;10.27;;;4.65;;
69979;SDS011;57318;56.232;43.944;2022-12-18T03:37:20;9.50;;;4.78;;
69979;SDS011;57318;56.232;43.944;2022-12-18T03:39:46;14.87;;;5.87;;
69979;SDS011;57318;56.232;43.944;2022-12-18T03:42:25;8.23;;;4.30;;
69979;SDS011;57318;56.232;43.944;2022-12-18T03:53:11;12.00;;;5.28;;
69979;SDS011;57318;56.232;43.944;2022-12-18T03:55:41;14.93;;;6.35;;
69979;SDS011;57318;56.232;43.944;2022-12-18T03:58:09;8.13;;;4.50;;
69979;SDS011;57318;56.232;43.944;2022-12-18T04:00:40;11.25;;;5.25;;
69979;SDS011;57318;56.232;43.944;2022-12-18T04:03:07;13.82;;;5.05;;
69979;SDS011;57318;56.232;43.944;2022-12-18T04:05:34;8.93;;;3.83;;
69979;SDS011;57318;56.232;43.944;2022-12-18T04:08:02;10.05;;;4.72;;
69979;SDS011;57318;56.232;43.944;2022-12-18T04:12:57;10.60;;;4.85;;
69979;SDS011;57318;56.232;43.944;2022-12-18T04:15:23;9.23;;;3.25;;
69979;SDS011;57318;56.232;43.944;2022-12-18T04:17:49;11.57;;;4.93;;
69979;SDS011;57318;56.232;43.944;2022-12-18T04:20:16;13.07;;;6.07;;
69979;SDS011;57318;56.232;43.944;2022-12-18T04:22:42;9.65;;;4.50;;
69979;SDS011;57318;56.232;43.944;2022-12-18T04:25:10;12.40;;;5.60;;
69979;SDS011;57318;56.232;43.944;2022-12-18T04:27:36;10.65;;;4.78;;
69979;SDS011;57318;56.232;43.944;2022-12-18T04:30:02;11.70;;;4.57;;
69979;SDS011;57318;56.232;43.944;2022-12-18T04:32:29;8.93;;;4.32;;
69979;SDS011;57318;56.232;43.944;2022-12-18T04:34:55;11.80;;;4.97;;
69979;SDS011;57318;56.232;43.944;2022-12-18T04:37:20;8.73;;;4.20;;
69979;SDS011;57318;56.232;43.944;2022-12-18T04:39:46;13.00;;;5.37;;
69979;SDS011;57318;56.232;43.944;2022-12-18T04:42:11;9.60;;;4.07;;
69979;SDS011;57318;56.232;43.944;2022-12-18T04:44:37;9.00;;;3.60;;
69979;SDS011;57318;56.232;43.944;2022-12-18T04:47:03;12.53;;;5.13;;
69979;SDS011;57318;56.232;43.944;2022-12-18T04:49:28;14.17;;;5.67;;
69979;SDS011;57318;56.232;43.944;2022-12-18T04:51:54;9.17;;;4.20;;
69979;SDS011;57318;56.232;43.944;2022-12-18T04:54:20;15.13;;;5.47;;
69979;SDS011;57318;56.232;43.944;2022-12-18T04:56:45;14.47;;;6.20;;
69979;SDS011;57318;56.232;43.944;2022-12-18T04:59:11;13.63;;;5.40;;
69979;SDS011;57318;56.232;43.944;2022-12-18T05:01:37;14.20;;;4.93;;
69979;SDS011;57318;56.232;43.944;2022-12-18T05:04:02;14.53;;;6.03;;
69979;SDS011;57318;56.232;43.944;2022-12-18T05:06:28;8.65;;;4.13;;
69979;SDS011;57318;56.232;43.944;2022-12-18T05:08:54;12.83;;;5.53;;
69979;SDS011;57318;56.232;43.944;2022-12-18T05:11:20;12.00;;;5.87;;
69979;SDS011;57318;56.232;43.944;2022-12-18T05:13:45;12.30;;;4.30;;
69979;SDS011;57318;56.232;43.944;2022-12-18T05:16:11;11.40;;;5.73;;
69979;SDS011;57318;56.232;43.944;2022-12-18T05:18:38;9.75;;;3.97;;
69979;SDS011;57318;56.232;43.944;2022-12-18T05:21:04;14.50;;;6.53;;
69979;SDS011;57318;56.232;43.944;2022-12-18T05:23:30;19.52;;;7.03;;
69979;SDS011;57318;56.232;43.944;2022-12-18T05:25:59;12.43;;;5.53;;
69979;SDS011;57318;56.232;43.944;2022-12-18T05:28:27;13.82;;;5.88;;
69979;SDS011;57318;56.232;43.944;2022-12-18T05:30:56;16.30;;;6.57;;
69979;SDS011;57318;56.232;43.944;2022-12-18T05:33:25;6.68;;;3.55;;
69979;SDS011;57318;56.232;43.944;2022-12-18T05:36:01;11.95;;;5.93;;
69979;SDS011;57318;56.232;43.944;2022-12-18T05:38:29;11.30;;;5.13;;
69979;SDS011;57318;56.232;43.944;2022-12-18T05:40:56;15.50;;;6.00;;
69979;SDS011;57318;56.232;43.944;2022-12-18T05:43:23;12.82;;;6.00;;
69979;SDS011;57318;56.232;43.944;2022-12-18T05:45:49;11.63;;;4.97;;
69979;SDS011;57318;56.232;43.944;2022-12-18T05:48:16;12.52;;;4.90;;
69979;SDS011;57318;56.232;43.944;2022-12-18T05:50:43;15.07;;;6.30;;
69979;SDS011;57318;56.232;43.944;2022-12-18T05:53:10;13.25;;;5.35;;
69979;SDS011;57318;56.232;43.944;2022-12-18T05:55:37;7.95;;;3.53;;
69979;SDS011;57318;56.232;43.944;2022-12-18T05:58:04;9.85;;;4.57;;
69979;SDS011;57318;56.232;43.944;2022-12-18T06:00:32;7.07;;;3.58;;
69979;SDS011;57318;56.232;43.944;2022-12-18T06:03:00;13.10;;;5.88;;
69979;SDS011;57318;56.232;43.944;2022-12-18T06:05:26;14.85;;;6.63;;
69979;SDS011;57318;56.232;43.944;2022-12-18T06:07:51;6.30;;;3.43;;
69979;SDS011;57318;56.232;43.944;2022-12-18T06:10:17;7.10;;;3.47;;
69979;SDS011;57318;56.232;43.944;2022-12-18T06:12:42;11.83;;;5.93;;
69979;SDS011;57318;56.232;43.944;2022-12-18T06:15:08;9.00;;;4.90;;
69979;SDS011;57318;56.232;43.944;2022-12-18T06:17:34;10.13;;;4.80;;
69979;SDS011;57318;56.232;43.944;2022-12-18T06:20:01;9.80;;;5.10;;
69979;SDS011;57318;56.232;43.944;2022-12-18T06:22:30;8.70;;;4.30;;
69979;SDS011;57318;56.232;43.944;2022-12-18T06:24:56;6.28;;;3.08;;
69979;SDS011;57318;56.232;43.944;2022-12-18T06:27:22;13.30;;;5.63;;
69979;SDS011;57318;56.232;43.944;2022-12-18T06:29:48;9.90;;;4.27;;
69979;SDS011;57318;56.232;43.944;2022-12-18T06:32:14;6.22;;;2.92;;
69979;SDS011;57318;56.232;43.944;2022-12-18T06:34:40;10.33;;;4.87;;
69979;SDS011;57318;56.232;43.944;2022-12-18T06:37:05;8.47;;;4.00;;
69979;SDS011;57318;56.232;43.944;2022-12-18T06:39:31;12.83;;;5.30;;
69979;SDS011;57318;56.232;43.944;2022-12-18T06:41:57;14.73;;;4.63;;
69979;SDS011;57318;56.232;43.944;2022-12-18T06:44:22;8.80;;;4.67;;
69979;SDS011;57318;56.232;43.944;2022-12-18T06:46:48;10.17;;;4.40;;
69979;SDS011;57318;56.232;43.944;2022-12-18T06:49:13;7.70;;;3.97;;
69979;SDS011;57318;56.232;43.944;2022-12-18T06:51:41;13.00;;;5.90;;
69979;SDS011;57318;56.232;43.944;2022-12-18T06:54:07;13.05;;;6.80;;
69979;SDS011;57318;56.232;43.944;2022-12-18T06:56:32;11.43;;;5.63;;
69979;SDS011;57318;56.232;43.944;2022-12-18T06:58:58;12.23;;;5.80;;
69979;SDS011;57318;56.232;43.944;2022-12-18T07:01:23;10.07;;;5.03;;
69979;SDS011;57318;56.232;43.944;2022-12-18T07:03:56;10.10;;;4.73;;
69979;SDS011;57318;56.232;43.944;2022-12-18T07:06:23;11.05;;;4.90;;
69979;SDS011;57318;56.232;43.944;2022-12-18T07:08:50;9.73;;;4.53;;
69979;SDS011;57318;56.232;43.944;2022-12-18T07:11:16;10.13;;;4.38;;
69979;SDS011;57318;56.232;43.944;2022-12-18T07:13:43;11.25;;;5.05;;
69979;SDS011;57318;56.232;43.944;2022-12-18T07:16:10;6.90;;;3.38;;
69979;SDS011;57318;56.232;43.944;2022-12-18T07:18:39;6.28;;;3.50;;
69979;SDS011;57318;56.232;43.944;2022-12-18T07:21:05;8.70;;;4.27;;
69979;SDS011;57318;56.232;43.944;2022-12-18T07:23:33;10.43;;;3.88;;
69979;SDS011;57318;56.232;43.944;2022-12-18T07:26:01;8.30;;;4.47;;
69979;SDS011;57318;56.232;43.944;2022-12-18T07:28:28;7.32;;;4.03;;
69979;SDS011;57318;56.232;43.944;2022-12-18T07:30:53;9.67;;;4.43;;
69979;SDS011;57318;56.232;43.944;2022-12-18T07:33:19;13.97;;;4.20;;
69979;SDS011;57318;56.232;43.944;2022-12-18T07:35:44;10.87;;;4.07;;
69979;SDS011;57318;56.232;43.944;2022-12-18T07:38:10;10.63;;;4.57;;
69979;SDS011;57318;56.232;43.944;2022-12-18T07:40:36;10.70;;;5.70;;
69979;SDS011;57318;56.232;43.944;2022-12-18T07:43:01;5.20;;;3.47;;
69979;SDS011;57318;56.232;43.944;2022-12-18T07:45:27;12.33;;;6.27;;
69979;SDS011;57318;56.232;43.944;2022-12-18T07:47:55;9.13;;;4.53;;
69979;SDS011;57318;56.232;43.944;2022-12-18T07:50:21;6.30;;;3.73;;
69979;SDS011;57318;56.232;43.944;2022-12-18T07:52:47;10.90;;;5.17;;
69979;SDS011;57318;56.232;43.944;2022-12-18T07:55:12;13.20;;;6.13;;
69979;SDS011;57318;56.232;43.944;2022-12-18T07:57:38;9.73;;;4.37;;
69979;SDS011;57318;56.232;43.944;2022-12-18T08:00:04;16.67;;;5.93;;
69979;SDS011;57318;56.232;43.944;2022-12-18T08:02:30;11.43;;;5.10;;
69979;SDS011;57318;56.232;43.944;2022-12-18T08:04:56;13.60;;;5.03;;
69979;SDS011;57318;56.232;43.944;2022-12-18T08:07:23;11.27;;;5.82;;
69979;SDS011;57318;56.232;43.944;2022-12-18T08:09:48;13.40;;;6.97;;
69979;SDS011;57318;56.232;43.944;2022-12-18T08:12:14;9.90;;;5.03;;
69979;SDS011;57318;56.232;43.944;2022-12-18T08:14:39;15.13;;;6.43;;
69979;SDS011;57318;56.232;43.944;2022-12-18T08:17:05;12.70;;;5.87;;
69979;SDS011;57318;56.232;43.944;2022-12-18T08:19:31;16.17;;;7.17;;
69979;SDS011;57318;56.232;43.944;2022-12-18T08:21:56;14.87;;;7.17;;
69979;SDS011;57318;56.232;43.944;2022-12-18T08:24:22;13.27;;;5.70;;
69979;SDS011;57318;56.232;43.944;2022-12-18T08:26:47;14.23;;;7.00;;
69979;SDS011;57318;56.232;43.944;2022-12-18T08:29:13;19.07;;;8.17;;
69979;SDS011;57318;56.232;43.944;2022-12-18T08:31:38;18.53;;;7.67;;
69979;SDS011;57318;56.232;43.944;2022-12-18T08:34:04;14.70;;;6.80;;
69979;SDS011;57318;56.232;43.944;2022-12-18T08:36:32;15.80;;;7.22;;
69979;SDS011;57318;56.232;43.944;2022-12-18T08:38:58;14.60;;;6.77;;
69979;SDS011;57318;56.232;43.944;2022-12-18T08:41:24;17.43;;;7.50;;
69979;SDS011;57318;56.232;43.944;2022-12-18T08:43:49;16.03;;;7.23;;
69979;SDS011;57318;56.232;43.944;2022-12-18T08:46:35;15.65;;;7.90;;
69979;SDS011;57318;56.232;43.944;2022-12-18T08:49:03;14.93;;;6.97;;
69979;SDS011;57318;56.232;43.944;2022-12-18T08:51:30;14.60;;;7.13;;
69979;SDS011;57318;56.232;43.944;2022-12-18T08:54:02;14.45;;;7.80;;
69979;SDS011;57318;56.232;43.944;2022-12-18T08:56:29;16.42;;;6.30;;
69979;SDS011;57318;56.232;43.944;2022-12-18T08:58:55;14.27;;;7.00;;
69979;SDS011;57318;56.232;43.944;2022-12-18T09:01:21;16.30;;;8.00;;
69979;SDS011;57318;56.232;43.944;2022-12-18T09:03:50;16.75;;;7.38;;
69979;SDS011;57318;56.232;43.944;2022-12-18T09:06:17;15.40;;;7.55;;
69979;SDS011;57318;56.232;43.944;2022-12-18T09:08:46;14.00;;;6.85;;
69979;SDS011;57318;56.232;43.944;2022-12-18T09:11:13;13.00;;;6.93;;
69979;SDS011;57318;56.232;43.944;2022-12-18T09:16:15;15.45;;;7.93;;
69979;SDS011;57318;56.232;43.944;2022-12-18T09:18:41;16.13;;;6.93;;
69979;SDS011;57318;56.232;43.944;2022-12-18T09:21:07;14.07;;;6.47;;
69979;SDS011;57318;56.232;43.944;2022-12-18T09:23:37;16.55;;;7.47;;
69979;SDS011;57318;56.232;43.944;2022-12-18T09:26:03;15.53;;;7.90;;
69979;SDS011;57318;56.232;43.944;2022-12-18T09:28:29;18.13;;;7.90;;
69979;SDS011;57318;56.232;43.944;2022-12-18T09:31:07;14.40;;;7.45;;
69979;SDS011;57318;56.232;43.944;2022-12-18T09:33:43;14.48;;;6.95;;
69979;SDS011;57318;56.232;43.944;2022-12-18T09:36:13;13.73;;;6.93;;
69979;SDS011;57318;56.232;43.944;2022-12-18T09:38:40;14.43;;;6.88;;
69979;SDS011;57318;56.232;43.944;2022-12-18T09:43:46;13.50;;;6.70;;
69979;SDS011;57318;56.232;43.944;2022-12-18T09:46:32;14.25;;;7.22;;
69979;SDS011;57318;56.232;43.944;2022-12-18T09:49:01;15.15;;;7.75;;
69979;SDS011;57318;56.232;43.944;2022-12-18T09:51:35;16.67;;;7.70;;
69979;SDS011;57318;56.232;43.944;2022-12-18T09:54:11;16.88;;;8.98;;
69979;SDS011;57318;56.232;43.944;2022-12-18T09:56:42;18.05;;;8.50;;
69979;SDS011;57318;56.232;43.944;2022-12-18T10:01:51;24.85;;;11.07;;
69979;SDS011;57318;56.232;43.944;2022-12-18T10:04:17;19.50;;;9.47;;
69979;SDS011;57318;56.232;43.944;2022-12-18T10:06:55;23.50;;;9.80;;
69979;SDS011;57318;56.232;43.944;2022-12-18T10:12:21;22.08;;;9.10;;
69979;SDS011;57318;56.232;43.944;2022-12-18T10:14:57;18.23;;;8.88;;
69979;SDS011;57318;56.232;43.944;2022-12-18T10:17:40;20.17;;;8.70;;
69979;SDS011;57318;56.232;43.944;2022-12-18T10:20:35;21.60;;;9.27;;
69979;SDS011;57318;56.232;43.944;2022-12-18T10:28:31;24.33;;;10.55;;
69979;SDS011;57318;56.232;43.944;2022-12-18T10:31:00;22.35;;;9.88;;
69979;SDS011;57318;56.232;43.944;2022-12-18T10:33:28;19.53;;;9.70;;
69979;SDS011;57318;56.232;43.944;2022-12-18T10:35:55;25.90;;;10.35;;
69979;SDS011;57318;56.232;43.944;2022-12-18T10:43:31;22.98;;;10.23;;
69979;SDS011;57318;56.232;43.944;2022-12-18T10:46:04;24.73;;;9.63;;
69979;SDS011;57318;56.232;43.944;2022-12-18T10:48:38;20.88;;;9.52;;
69979;SDS011;57318;56.232;43.944;2022-12-18T10:51:21;20.20;;;9.50;;
69979;SDS011;57318;56.232;43.944;2022-12-18T10:53:54;19.70;;;9.00;;
69979;SDS011;57318;56.232;43.944;2022-12-18T10:56:20;21.48;;;9.57;;
69979;SDS011;57318;56.232;43.944;2022-12-18T10:58:55;22.08;;;10.82;;
69979;SDS011;57318;56.232;43.944;2022-12-18T11:01:22;24.88;;;9.70;;
69979;SDS011;57318;56.232;43.944;2022-12-18T11:06:20;22.00;;;8.95;;
69979;SDS011;57318;56.232;43.944;2022-12-18T11:08:59;19.75;;;8.65;;
69979;SDS011;57318;56.232;43.944;2022-12-18T11:11:53;19.02;;;8.30;;
69979;SDS011;57318;56.232;43.944;2022-12-18T11:16:49;20.52;;;8.43;;
69979;SDS011;57318;56.232;43.944;2022-12-18T11:21:59;19.83;;;8.95;;
69979;SDS011;57318;56.232;43.944;2022-12-18T11:24:31;21.90;;;9.70;;
69979;SDS011;57318;56.232;43.944;2022-12-18T11:27:05;18.63;;;8.95;;
69979;SDS011;57318;56.232;43.944;2022-12-18T11:29:43;22.65;;;8.65;;
69979;SDS011;57318;56.232;43.944;2022-12-18T11:37:38;19.40;;;8.32;;
69979;SDS011;57318;56.232;43.944;2022-12-18T11:40:13;18.85;;;8.13;;
69979;SDS011;57318;56.232;43.944;2022-12-18T11:42:50;18.80;;;8.02;;
69979;SDS011;57318;56.232;43.944;2022-12-18T11:50:59;19.02;;;8.30;;
69979;SDS011;57318;56.232;43.944;2022-12-18T11:53:29;20.85;;;7.55;;
69979;SDS011;57318;56.232;43.944;2022-12-18T12:15:13;16.60;;;6.38;;
69979;SDS011;57318;56.232;43.944;2022-12-18T12:26:08;10.93;;;5.68;;
69979;SDS011;57318;56.232;43.944;2022-12-18T12:34:20;12.88;;;5.13;;
69979;SDS011;57318;56.232;43.944;2022-12-18T12:39:46;17.17;;;7.30;;
69979;SDS011;57318;56.232;43.944;2022-12-18T12:51:16;17.52;;;6.95;;
69979;SDS011;57318;56.232;43.944;2022-12-18T12:53:44;15.27;;;6.88;;
69979;SDS011;57318;56.232;43.944;2022-12-18T12:56:11;15.57;;;6.82;;
69979;SDS011;57318;56.232;43.944;2022-12-18T13:04:38;12.75;;;6.20;;
69979;SDS011;57318;56.232;43.944;2022-12-18T13:07:14;16.17;;;6.72;;
69979;SDS011;57318;56.232;43.944;2022-12-18T13:18:23;15.73;;;6.85;;
69979;SDS011;57318;56.232;43.944;2022-12-18T13:31:03;15.82;;;6.47;;
69979;SDS011;57318;56.232;43.944;2022-12-18T13:36:04;12.73;;;5.15;;
69979;SDS011;57318;56.232;43.944;2022-12-18T13:38:37;15.35;;;6.40;;
69979;SDS011;57318;56.232;43.944;2022-12-18T13:43:33;18.55;;;7.38;;
69979;SDS011;57318;56.232;43.944;2022-12-18T13:48:34;13.13;;;5.30;;
69979;SDS011;57318;56.232;43.944;2022-12-18T13:51:06;13.50;;;5.63;;
69979;SDS011;57318;56.232;43.944;2022-12-18T13:53:39;16.08;;;7.10;;
69979;SDS011;57318;56.232;43.944;2022-12-18T13:56:13;13.85;;;5.93;;
69979;SDS011;57318;56.232;43.944;2022-12-18T13:58:45;13.05;;;6.35;;
69979;SDS011;57318;56.232;43.944;2022-12-18T14:01:23;12.53;;;5.43;;
69979;SDS011;57318;56.232;43.944;2022-12-18T14:04:08;15.48;;;6.38;;
69979;SDS011;57318;56.232;43.944;2022-12-18T14:06:35;15.95;;;6.47;;
69979;SDS011;57318;56.232;43.944;2022-12-18T14:09:01;14.40;;;7.07;;
69979;SDS011;57318;56.232;43.944;2022-12-18T14:11:28;13.82;;;6.03;;
69979;SDS011;57318;56.232;43.944;2022-12-18T14:16:20;13.60;;;5.15;;
69979;SDS011;57318;56.232;43.944;2022-12-18T14:18:53;11.75;;;5.40;;
69979;SDS011;57318;56.232;43.944;2022-12-18T14:21:27;15.68;;;6.10;;
69979;SDS011;57318;56.232;43.944;2022-12-18T14:26:44;15.43;;;6.65;;
69979;SDS011;57318;56.232;43.944;2022-12-18T14:31:44;10.70;;;5.07;;
69979;SDS011;57318;56.232;43.944;2022-12-18T14:34:16;10.53;;;5.70;;
69979;SDS011;57318;56.232;43.944;2022-12-18T14:36:51;10.77;;;5.07;;
69979;SDS011;57318;56.232;43.944;2022-12-18T14:39:17;13.77;;;5.47;;
69979;SDS011;57318;56.232;43.944;2022-12-18T14:41:43;15.63;;;5.97;;
69979;SDS011;57318;56.232;43.944;2022-12-18T14:44:11;11.30;;;5.78;;
69979;SDS011;57318;56.232;43.944;2022-12-18T14:46:39;10.75;;;5.03;;
69979;SDS011;57318;56.232;43.944;2022-12-18T14:52:27;12.88;;;6.18;;
69979;SDS011;57318;56.232;43.944;2022-12-18T14:54:47;9.95;;;4.70;;
69979;SDS011;57318;56.232;43.944;2022-12-18T14:57:23;15.30;;;5.43;;
69979;SDS011;57318;56.232;43.944;2022-12-18T14:59:51;10.48;;;4.53;;
69979;SDS011;57318;56.232;43.944;2022-12-18T15:05:03;12.23;;;5.20;;
69979;SDS011;57318;56.232;43.944;2022-12-18T15:07:43;11.55;;;5.55;;
69979;SDS011;57318;56.232;43.944;2022-12-18T15:12:47;14.40;;;6.28;;
69979;SDS011;57318;56.232;43.944;2022-12-18T15:20:24;13.47;;;6.17;;
69979;SDS011;57318;56.232;43.944;2022-12-18T15:22:49;13.83;;;4.83;;
69979;SDS011;57318;56.232;43.944;2022-12-18T15:25:29;13.73;;;5.33;;
69979;SDS011;57318;56.232;43.944;2022-12-18T15:28:01;11.60;;;4.80;;
69979;SDS011;57318;56.232;43.944;2022-12-18T15:30:27;17.63;;;6.47;;
69979;SDS011;57318;56.232;43.944;2022-12-18T15:33:16;13.50;;;5.37;;
69979;SDS011;57318;56.232;43.944;2022-12-18T15:35:47;13.50;;;6.38;;
69979;SDS011;57318;56.232;43.944;2022-12-18T15:38:24;13.88;;;6.00;;
69979;SDS011;57318;56.232;43.944;2022-12-18T15:40:50;10.32;;;5.03;;
69979;SDS011;57318;56.232;43.944;2022-12-18T15:43:17;14.95;;;6.00;;
69979;SDS011;57318;56.232;43.944;2022-12-18T15:48:34;18.13;;;6.70;;
69979;SDS011;57318;56.232;43.944;2022-12-18T15:51:04;11.75;;;4.68;;
69979;SDS011;57318;56.232;43.944;2022-12-18T15:53:31;11.93;;;5.18;;
69979;SDS011;57318;56.232;43.944;2022-12-18T15:55:59;17.63;;;7.53;;
69979;SDS011;57318;56.232;43.944;2022-12-18T15:58:43;12.95;;;5.57;;
69979;SDS011;57318;56.232;43.944;2022-12-18T16:01:09;17.20;;;6.32;;
69979;SDS011;57318;56.232;43.944;2022-12-18T16:03:36;14.27;;;6.28;;
69979;SDS011;57318;56.232;43.944;2022-12-18T16:06:02;11.37;;;4.33;;
69979;SDS011;57318;56.232;43.944;2022-12-18T16:08:28;11.87;;;4.47;;
69979;SDS011;57318;56.232;43.944;2022-12-18T16:10:55;13.77;;;4.97;;
69979;SDS011;57318;56.232;43.944;2022-12-18T16:15:47;15.90;;;6.05;;
69979;SDS011;57318;56.232;43.944;2022-12-18T16:18:13;15.18;;;6.15;;
69979;SDS011;57318;56.232;43.944;2022-12-18T16:20:39;13.15;;;5.40;;
69979;SDS011;57318;56.232;43.944;2022-12-18T16:23:05;9.88;;;3.47;;
69979;SDS011;57318;56.232;43.944;2022-12-18T16:25:31;12.27;;;5.53;;
69979;SDS011;57318;56.232;43.944;2022-12-18T16:27:57;14.35;;;5.57;;
69979;SDS011;57318;56.232;43.944;2022-12-18T16:30:23;12.73;;;6.20;;
69979;SDS011;57318;56.232;43.944;2022-12-18T16:32:53;16.10;;;6.15;;
69979;SDS011;57318;56.232;43.944;2022-12-18T16:35:19;9.38;;;4.63;;
69979;SDS011;57318;56.232;43.944;2022-12-18T16:37:45;12.80;;;5.82;;
69979;SDS011;57318;56.232;43.944;2022-12-18T16:40:12;11.90;;;5.05;;
69979;SDS011;57318;56.232;43.944;2022-12-18T16:42:40;14.55;;;5.95;;
69979;SDS011;57318;56.232;43.944;2022-12-18T16:45:07;14.90;;;5.82;;
69979;SDS011;57318;56.232;43.944;2022-12-18T16:47:34;13.25;;;5.45;;
69979;SDS011;57318;56.232;43.944;2022-12-18T16:49:59;13.30;;;5.40;;
69979;SDS011;57318;56.232;43.944;2022-12-18T16:52:25;14.73;;;6.33;;
69979;SDS011;57318;56.232;43.944;2022-12-18T16:54:51;12.02;;;4.95;;
69979;SDS011;57318;56.232;43.944;2022-12-18T16:57:17;12.33;;;5.20;;
69979;SDS011;57318;56.232;43.944;2022-12-18T16:59:45;10.68;;;5.28;;
69979;SDS011;57318;56.232;43.944;2022-12-18T17:02:17;16.10;;;6.32;;
69979;SDS011;57318;56.232;43.944;2022-12-18T17:04:44;11.63;;;5.57;;
69979;SDS011;57318;56.232;43.944;2022-12-18T17:07:10;16.60;;;5.80;;
69979;SDS011;57318;56.232;43.944;2022-12-18T17:09:38;10.10;;;5.00;;
69979;SDS011;57318;56.232;43.944;2022-12-18T17:12:04;6.85;;;3.50;;
69979;SDS011;57318;56.232;43.944;2022-12-18T17:14:31;11.85;;;5.85;;
69979;SDS011;57318;56.232;43.944;2022-12-18T17:19:24;12.15;;;5.07;;
69979;SDS011;57318;56.232;43.944;2022-12-18T17:21:51;10.10;;;4.78;;
69979;SDS011;57318;56.232;43.944;2022-12-18T17:24:17;10.30;;;4.75;;
69979;SDS011;57318;56.232;43.944;2022-12-18T17:26:43;6.30;;;3.03;;
69979;SDS011;57318;56.232;43.944;2022-12-18T17:29:11;8.37;;;4.27;;
69979;SDS011;57318;56.232;43.944;2022-12-18T17:31:39;12.07;;;5.13;;
69979;SDS011;57318;56.232;43.944;2022-12-18T17:34:05;10.43;;;4.40;;
69979;SDS011;57318;56.232;43.944;2022-12-18T17:36:30;12.40;;;4.25;;
69979;SDS011;57318;56.232;43.944;2022-12-18T17:38:57;9.98;;;5.18;;